sensor_id;sensor_type;location;lat;lon;timestamp;pressure;altitude;pressure_sealevel;temperature;humidity
63339;BME280;47485;51.378;-1.342;2023-02-20T00:02:00;101263.26;;;1.71;46.92
63339;BME280;47485;51.378;-1.342;2023-02-20T00:04:27;101260.37;;;2.26;47.97
63339;BME280;47485;51.378;-1.342;2023-02-20T00:06:54;101261.59;;;1.32;48.80
63339;BME280;47485;51.378;-1.342;2023-02-20T00:09:20;101259.64;;;1.28;49.60
63339;BME280;47485;51.378;-1.342;2023-02-20T00:11:47;101252.95;;;1.65;49.34
63339;BME280;47485;51.378;-1.342;2023-02-20T00:14:14;101257.58;;;0.53;49.83
63339;BME280;47485;51.378;-1.342;2023-02-20T00:16:41;101256.65;;;0.24;52.83
63339;BME280;47485;51.378;-1.342;2023-02-20T00:19:11;101256.39;;;0.34;51.32
63339;BME280;47485;51.378;-1.342;2023-02-20T00:21:44;101253.53;;;1.55;52.57
63339;BME280;47485;51.378;-1.342;2023-02-20T00:24:10;101250.98;;;1.00;52.13
63339;BME280;47485;51.378;-1.342;2023-02-20T00:26:37;101253.14;;;1.20;55.71
63339;BME280;47485;51.378;-1.342;2023-02-20T00:29:04;101250.98;;;-0.39;53.21
63339;BME280;47485;51.378;-1.342;2023-02-20T00:31:31;101246.46;;;1.98;51.60
63339;BME280;47485;51.378;-1.342;2023-02-20T00:33:57;101240.43;;;0.43;52.24
63339;BME280;47485;51.378;-1.342;2023-02-20T00:36:24;101239.37;;;1.34;51.10
63339;BME280;47485;51.378;-1.342;2023-02-20T00:38:51;101242.58;;;0.69;54.19
63339;BME280;47485;51.378;-1.342;2023-02-20T00:41:18;101243.99;;;0.63;56.90
63339;BME280;47485;51.378;-1.342;2023-02-20T00:43:45;101241.19;;;0.26;57.04
63339;BME280;47485;51.378;-1.342;2023-02-20T00:46:12;101233.00;;;0.18;55.38
63339;BME280;47485;51.378;-1.342;2023-02-20T00:48:41;101224.19;;;0.16;54.77
63339;BME280;47485;51.378;-1.342;2023-02-20T00:51:08;101223.59;;;0.83;53.74
63339;BME280;47485;51.378;-1.342;2023-02-20T00:53:35;101221.45;;;0.20;56.18
63339;BME280;47485;51.378;-1.342;2023-02-20T00:56:02;101219.91;;;-0.35;56.64
63339;BME280;47485;51.378;-1.342;2023-02-20T00:58:29;101216.59;;;1.67;52.93
63339;BME280;47485;51.378;-1.342;2023-02-20T01:00:55;101221.97;;;0.32;51.82
63339;BME280;47485;51.378;-1.342;2023-02-20T01:03:22;101223.26;;;0.32;53.87
63339;BME280;47485;51.378;-1.342;2023-02-20T01:05:49;101216.28;;;0.08;50.66
63339;BME280;47485;51.378;-1.342;2023-02-20T01:08:16;101217.08;;;1.77;47.90
63339;BME280;47485;51.378;-1.342;2023-02-20T01:10:42;101219.65;;;1.46;53.96
63339;BME280;47485;51.378;-1.342;2023-02-20T01:13:09;101212.11;;;2.32;49.75
63339;BME280;47485;51.378;-1.342;2023-02-20T01:15:36;101212.29;;;2.05;49.46
63339;BME280;47485;51.378;-1.342;2023-02-20T01:18:03;101212.86;;;0.01;53.04
63339;BME280;47485;51.378;-1.342;2023-02-20T01:20:30;101212.33;;;0.26;54.14
63339;BME280;47485;51.378;-1.342;2023-02-20T01:22:57;101204.87;;;1.98;49.75
63339;BME280;47485;51.378;-1.342;2023-02-20T01:25:24;101205.39;;;0.81;50.24
63339;BME280;47485;51.378;-1.342;2023-02-20T01:27:50;101201.87;;;1.20;50.52
63339;BME280;47485;51.378;-1.342;2023-02-20T01:30:17;101197.99;;;0.35;54.73
63339;BME280;47485;51.378;-1.342;2023-02-20T01:32:44;101197.89;;;1.06;52.56
63339;BME280;47485;51.378;-1.342;2023-02-20T01:35:11;101194.88;;;0.08;53.38
63339;BME280;47485;51.378;-1.342;2023-02-20T01:37:38;101191.81;;;0.42;54.95
63339;BME280;47485;51.378;-1.342;2023-02-20T01:40:07;101194.75;;;-0.25;54.72
63339;BME280;47485;51.378;-1.342;2023-02-20T01:42:34;101187.88;;;0.25;54.52
63339;BME280;47485;51.378;-1.342;2023-02-20T01:45:26;101187.65;;;0.55;52.73
63339;BME280;47485;51.378;-1.342;2023-02-20T01:47:55;101184.90;;;1.03;50.82
63339;BME280;47485;51.378;-1.342;2023-02-20T01:50:25;101195.51;;;3.27;47.53
63339;BME280;47485;51.378;-1.342;2023-02-20T01:52:57;101196.84;;;2.18;47.48
63339;BME280;47485;51.378;-1.342;2023-02-20T01:55:27;101191.64;;;2.51;48.78
63339;BME280;47485;51.378;-1.342;2023-02-20T01:57:58;101194.82;;;1.73;48.73
63339;BME280;47485;51.378;-1.342;2023-02-20T02:00:26;101196.13;;;-0.05;53.58
63339;BME280;47485;51.378;-1.342;2023-02-20T02:02:56;101194.97;;;0.58;53.63
63339;BME280;47485;51.378;-1.342;2023-02-20T02:05:28;101192.69;;;0.79;52.93
63339;BME280;47485;51.378;-1.342;2023-02-20T02:07:56;101195.20;;;-0.17;52.77
63339;BME280;47485;51.378;-1.342;2023-02-20T02:10:28;101192.08;;;1.31;49.36
63339;BME280;47485;51.378;-1.342;2023-02-20T02:12:56;101197.90;;;1.05;52.44
63339;BME280;47485;51.378;-1.342;2023-02-20T02:15:23;101189.54;;;2.90;48.66
63339;BME280;47485;51.378;-1.342;2023-02-20T02:18:02;101182.75;;;3.25;46.05
63339;BME280;47485;51.378;-1.342;2023-02-20T02:21:55;101186.07;;;2.35;46.95
63339;BME280;47485;51.378;-1.342;2023-02-20T02:25:54;101180.86;;;1.62;50.72
63339;BME280;47485;51.378;-1.342;2023-02-20T02:28:41;101183.42;;;1.84;51.67
63339;BME280;47485;51.378;-1.342;2023-02-20T02:31:31;101186.09;;;1.21;50.07
63339;BME280;47485;51.378;-1.342;2023-02-20T02:34:22;101180.33;;;1.07;52.86
63339;BME280;47485;51.378;-1.342;2023-02-20T02:36:57;101178.72;;;0.52;54.02
63339;BME280;47485;51.378;-1.342;2023-02-20T02:39:34;101171.37;;;0.34;54.15
63339;BME280;47485;51.378;-1.342;2023-02-20T02:42:08;101173.85;;;0.97;54.57
63339;BME280;47485;51.378;-1.342;2023-02-20T02:44:43;101177.47;;;-0.17;55.15
63339;BME280;47485;51.378;-1.342;2023-02-20T02:47:16;101176.17;;;0.30;55.81
63339;BME280;47485;51.378;-1.342;2023-02-20T02:49:48;101179.34;;;-0.07;56.50
63339;BME280;47485;51.378;-1.342;2023-02-20T02:52:19;101181.34;;;0.45;54.94
63339;BME280;47485;51.378;-1.342;2023-02-20T02:54:48;101177.85;;;1.16;54.10
63339;BME280;47485;51.378;-1.342;2023-02-20T02:57:19;101179.90;;;-0.26;55.21
63339;BME280;47485;51.378;-1.342;2023-02-20T02:59:47;101177.28;;;-0.06;56.85
63339;BME280;47485;51.378;-1.342;2023-02-20T03:02:17;101175.42;;;1.19;56.67
63339;BME280;47485;51.378;-1.342;2023-02-20T03:04:46;101171.59;;;-0.51;58.39
63339;BME280;47485;51.378;-1.342;2023-02-20T03:07:16;101170.00;;;0.91;57.42
63339;BME280;47485;51.378;-1.342;2023-02-20T03:09:46;101172.21;;;-0.68;58.70
63339;BME280;47485;51.378;-1.342;2023-02-20T03:12:15;101162.79;;;-0.82;58.31
63339;BME280;47485;51.378;-1.342;2023-02-20T03:14:48;101165.28;;;-0.49;58.76
63339;BME280;47485;51.378;-1.342;2023-02-20T03:17:22;101160.98;;;0.18;57.06
63339;BME280;47485;51.378;-1.342;2023-02-20T03:19:52;101160.84;;;0.46;56.25
63339;BME280;47485;51.378;-1.342;2023-02-20T03:22:24;101164.22;;;1.21;56.01
63339;BME280;47485;51.378;-1.342;2023-02-20T03:24:55;101160.89;;;-0.57;57.06
63339;BME280;47485;51.378;-1.342;2023-02-20T03:27:26;101157.15;;;1.58;53.96
63339;BME280;47485;51.378;-1.342;2023-02-20T03:29:57;101159.77;;;1.31;53.55
63339;BME280;47485;51.378;-1.342;2023-02-20T03:32:27;101156.37;;;0.96;54.54
63339;BME280;47485;51.378;-1.342;2023-02-20T03:34:56;101153.18;;;0.55;56.79
63339;BME280;47485;51.378;-1.342;2023-02-20T03:37:27;101150.60;;;0.06;57.59
63339;BME280;47485;51.378;-1.342;2023-02-20T03:39:59;101149.92;;;0.55;57.02
63339;BME280;47485;51.378;-1.342;2023-02-20T03:42:29;101155.55;;;-0.15;58.36
63339;BME280;47485;51.378;-1.342;2023-02-20T03:44:58;101154.63;;;-0.31;56.93
63339;BME280;47485;51.378;-1.342;2023-02-20T03:47:27;101158.33;;;-0.72;60.14
63339;BME280;47485;51.378;-1.342;2023-02-20T03:49:55;101157.41;;;0.72;58.32
63339;BME280;47485;51.378;-1.342;2023-02-20T03:52:24;101157.93;;;-0.43;59.81
63339;BME280;47485;51.378;-1.342;2023-02-20T03:54:52;101168.53;;;0.08;60.74
63339;BME280;47485;51.378;-1.342;2023-02-20T03:57:22;101170.69;;;-0.03;61.15
63339;BME280;47485;51.378;-1.342;2023-02-20T03:59:52;101167.00;;;-0.22;56.75
63339;BME280;47485;51.378;-1.342;2023-02-20T04:02:23;101165.86;;;0.67;55.59
63339;BME280;47485;51.378;-1.342;2023-02-20T04:04:54;101166.38;;;-0.19;59.28
63339;BME280;47485;51.378;-1.342;2023-02-20T04:07:26;101163.76;;;0.02;57.01
63339;BME280;47485;51.378;-1.342;2023-02-20T04:09:59;101164.32;;;1.61;55.78
63339;BME280;47485;51.378;-1.342;2023-02-20T04:12:30;101158.70;;;2.41;52.62
63339;BME280;47485;51.378;-1.342;2023-02-20T04:15:01;101164.78;;;-0.48;54.11
63339;BME280;47485;51.378;-1.342;2023-02-20T04:17:30;101158.11;;;0.86;55.29
63339;BME280;47485;51.378;-1.342;2023-02-20T04:19:58;101161.36;;;0.41;57.62
63339;BME280;47485;51.378;-1.342;2023-02-20T04:22:29;101160.11;;;-0.96;58.18
63339;BME280;47485;51.378;-1.342;2023-02-20T04:24:59;101164.03;;;-0.12;58.76
63339;BME280;47485;51.378;-1.342;2023-02-20T04:27:27;101153.69;;;0.37;57.13
63339;BME280;47485;51.378;-1.342;2023-02-20T04:29:54;101156.37;;;0.38;57.18
63339;BME280;47485;51.378;-1.342;2023-02-20T04:32:20;101155.18;;;0.25;55.11
63339;BME280;47485;51.378;-1.342;2023-02-20T04:34:47;101167.16;;;1.43;56.10
63339;BME280;47485;51.378;-1.342;2023-02-20T04:37:16;101163.09;;;0.57;55.44
63339;BME280;47485;51.378;-1.342;2023-02-20T04:39:44;101160.50;;;0.04;54.19
63339;BME280;47485;51.378;-1.342;2023-02-20T04:42:10;101164.41;;;1.51;55.76
63339;BME280;47485;51.378;-1.342;2023-02-20T04:44:37;101165.69;;;-0.07;56.62
63339;BME280;47485;51.378;-1.342;2023-02-20T04:47:07;101167.50;;;0.23;55.02
63339;BME280;47485;51.378;-1.342;2023-02-20T04:49:34;101166.48;;;1.55;53.11
63339;BME280;47485;51.378;-1.342;2023-02-20T04:52:01;101171.70;;;1.15;54.70
63339;BME280;47485;51.378;-1.342;2023-02-20T04:54:28;101173.37;;;0.25;55.30
63339;BME280;47485;51.378;-1.342;2023-02-20T04:56:55;101166.81;;;0.94;55.66
63339;BME280;47485;51.378;-1.342;2023-02-20T04:59:22;101163.65;;;-0.63;56.69
63339;BME280;47485;51.378;-1.342;2023-02-20T05:01:50;101166.92;;;-0.22;56.93
63339;BME280;47485;51.378;-1.342;2023-02-20T05:04:17;101161.27;;;0.91;53.20
63339;BME280;47485;51.378;-1.342;2023-02-20T05:06:49;101160.96;;;-0.09;55.57
63339;BME280;47485;51.378;-1.342;2023-02-20T05:09:16;101154.17;;;1.56;53.54
63339;BME280;47485;51.378;-1.342;2023-02-20T05:11:44;101159.67;;;1.78;53.01
63339;BME280;47485;51.378;-1.342;2023-02-20T05:14:10;101165.70;;;1.13;53.73
63339;BME280;47485;51.378;-1.342;2023-02-20T05:16:38;101161.96;;;1.10;54.06
63339;BME280;47485;51.378;-1.342;2023-02-20T05:19:06;101163.46;;;1.55;53.27
63339;BME280;47485;51.378;-1.342;2023-02-20T05:21:33;101158.11;;;2.85;51.25
63339;BME280;47485;51.378;-1.342;2023-02-20T05:24:00;101159.44;;;1.86;53.56
63339;BME280;47485;51.378;-1.342;2023-02-20T05:26:27;101161.18;;;0.58;54.04
63339;BME280;47485;51.378;-1.342;2023-02-20T05:28:54;101161.52;;;0.71;53.35
63339;BME280;47485;51.378;-1.342;2023-02-20T05:31:21;101161.92;;;1.36;50.79
63339;BME280;47485;51.378;-1.342;2023-02-20T05:33:48;101164.54;;;1.28;52.26
63339;BME280;47485;51.378;-1.342;2023-02-20T05:36:15;101161.86;;;0.74;54.28
63339;BME280;47485;51.378;-1.342;2023-02-20T05:38:43;101163.65;;;-0.67;55.78
63339;BME280;47485;51.378;-1.342;2023-02-20T05:41:10;101165.37;;;-0.67;56.61
63339;BME280;47485;51.378;-1.342;2023-02-20T05:43:37;101162.66;;;1.48;53.95
63339;BME280;47485;51.378;-1.342;2023-02-20T05:46:03;101162.98;;;1.15;54.58
63339;BME280;47485;51.378;-1.342;2023-02-20T05:48:30;101158.94;;;1.19;54.76
63339;BME280;47485;51.378;-1.342;2023-02-20T05:50:57;101158.86;;;0.03;54.03
63339;BME280;47485;51.378;-1.342;2023-02-20T05:53:26;101157.32;;;1.80;50.33
63339;BME280;47485;51.378;-1.342;2023-02-20T05:55:53;101156.40;;;2.35;50.91
63339;BME280;47485;51.378;-1.342;2023-02-20T05:58:21;101155.75;;;0.93;53.52
63339;BME280;47485;51.378;-1.342;2023-02-20T06:00:48;101149.86;;;0.49;52.88
63339;BME280;47485;51.378;-1.342;2023-02-20T06:03:15;101146.86;;;2.20;51.23
63339;BME280;47485;51.378;-1.342;2023-02-20T06:05:43;101146.07;;;1.42;48.45
63339;BME280;47485;51.378;-1.342;2023-02-20T06:08:09;101146.70;;;2.29;49.54
63339;BME280;47485;51.378;-1.342;2023-02-20T06:10:36;101145.49;;;0.33;52.12
63339;BME280;47485;51.378;-1.342;2023-02-20T06:13:03;101145.36;;;1.91;50.20
63339;BME280;47485;51.378;-1.342;2023-02-20T06:15:30;101141.97;;;2.77;48.20
63339;BME280;47485;51.378;-1.342;2023-02-20T06:17:57;101142.38;;;1.57;48.42
63339;BME280;47485;51.378;-1.342;2023-02-20T06:20:23;101141.99;;;1.76;50.40
63339;BME280;47485;51.378;-1.342;2023-02-20T06:22:50;101144.86;;;2.08;49.88
63339;BME280;47485;51.378;-1.342;2023-02-20T06:25:17;101142.78;;;0.97;50.14
63339;BME280;47485;51.378;-1.342;2023-02-20T06:27:44;101144.46;;;1.65;52.27
63339;BME280;47485;51.378;-1.342;2023-02-20T06:30:11;101141.40;;;0.65;53.35
63339;BME280;47485;51.378;-1.342;2023-02-20T06:32:39;101144.59;;;0.64;52.43
63339;BME280;47485;51.378;-1.342;2023-02-20T06:35:07;101140.83;;;1.48;53.57
63339;BME280;47485;51.378;-1.342;2023-02-20T06:37:34;101141.07;;;0.97;53.37
63339;BME280;47485;51.378;-1.342;2023-02-20T06:40:03;101142.42;;;1.95;53.26
63339;BME280;47485;51.378;-1.342;2023-02-20T06:42:30;101143.04;;;2.16;50.16
63339;BME280;47485;51.378;-1.342;2023-02-20T06:44:58;101141.33;;;1.50;51.94
63339;BME280;47485;51.378;-1.342;2023-02-20T06:47:25;101145.58;;;2.05;52.80
63339;BME280;47485;51.378;-1.342;2023-02-20T06:49:51;101149.46;;;1.39;52.25
63339;BME280;47485;51.378;-1.342;2023-02-20T06:52:23;101143.38;;;1.57;52.14
63339;BME280;47485;51.378;-1.342;2023-02-20T06:54:50;101142.23;;;1.99;52.04
63339;BME280;47485;51.378;-1.342;2023-02-20T06:57:17;101141.88;;;2.50;51.41
63339;BME280;47485;51.378;-1.342;2023-02-20T06:59:44;101136.86;;;1.00;50.67
63339;BME280;47485;51.378;-1.342;2023-02-20T07:02:11;101130.57;;;1.59;50.63
63339;BME280;47485;51.378;-1.342;2023-02-20T07:04:39;101119.78;;;2.53;50.50
63339;BME280;47485;51.378;-1.342;2023-02-20T07:07:06;101119.90;;;1.88;51.46
63339;BME280;47485;51.378;-1.342;2023-02-20T07:09:33;101118.84;;;2.82;50.31
63339;BME280;47485;51.378;-1.342;2023-02-20T07:12:00;101115.56;;;0.87;52.09
63339;BME280;47485;51.378;-1.342;2023-02-20T07:14:26;101111.07;;;2.09;50.71
63339;BME280;47485;51.378;-1.342;2023-02-20T07:16:53;101112.91;;;2.49;50.82
63339;BME280;47485;51.378;-1.342;2023-02-20T07:19:20;101114.25;;;2.37;49.38
63339;BME280;47485;51.378;-1.342;2023-02-20T07:21:47;101115.53;;;1.79;52.11
63339;BME280;47485;51.378;-1.342;2023-02-20T07:24:14;101118.44;;;1.37;54.52
63339;BME280;47485;51.378;-1.342;2023-02-20T07:26:41;101114.81;;;1.54;52.39
63339;BME280;47485;51.378;-1.342;2023-02-20T07:29:10;101112.98;;;0.74;51.26
63339;BME280;47485;51.378;-1.342;2023-02-20T07:31:38;101114.50;;;1.43;52.62
63339;BME280;47485;51.378;-1.342;2023-02-20T07:34:05;101115.94;;;1.42;52.47
63339;BME280;47485;51.378;-1.342;2023-02-20T07:36:32;101115.90;;;2.02;53.21
63339;BME280;47485;51.378;-1.342;2023-02-20T07:39:00;101115.65;;;1.04;51.12
63339;BME280;47485;51.378;-1.342;2023-02-20T07:41:29;101116.59;;;2.84;51.32
63339;BME280;47485;51.378;-1.342;2023-02-20T07:43:56;101116.03;;;3.02;50.37
63339;BME280;47485;51.378;-1.342;2023-02-20T07:46:23;101113.64;;;1.03;51.38
63339;BME280;47485;51.378;-1.342;2023-02-20T07:48:50;101121.31;;;2.57;52.68
63339;BME280;47485;51.378;-1.342;2023-02-20T07:51:17;101126.19;;;3.77;51.07
63339;BME280;47485;51.378;-1.342;2023-02-20T07:53:46;101125.73;;;2.92;51.54
63339;BME280;47485;51.378;-1.342;2023-02-20T07:56:14;101128.86;;;1.95;52.92
63339;BME280;47485;51.378;-1.342;2023-02-20T07:58:41;101128.13;;;0.28;53.24
63339;BME280;47485;51.378;-1.342;2023-02-20T08:01:08;101129.41;;;1.50;53.87
63339;BME280;47485;51.378;-1.342;2023-02-20T08:03:35;101139.54;;;1.88;54.88
63339;BME280;47485;51.378;-1.342;2023-02-20T08:06:02;101145.82;;;1.25;51.57
63339;BME280;47485;51.378;-1.342;2023-02-20T08:08:30;101148.09;;;2.39;52.78
63339;BME280;47485;51.378;-1.342;2023-02-20T08:10:57;101149.26;;;1.37;52.15
63339;BME280;47485;51.378;-1.342;2023-02-20T08:13:24;101146.86;;;2.62;51.29
63339;BME280;47485;51.378;-1.342;2023-02-20T08:15:51;101151.64;;;1.99;50.65
63339;BME280;47485;51.378;-1.342;2023-02-20T08:18:18;101155.68;;;1.17;53.20
63339;BME280;47485;51.378;-1.342;2023-02-20T08:20:45;101155.90;;;3.22;51.67
63339;BME280;47485;51.378;-1.342;2023-02-20T08:23:16;101164.02;;;2.20;52.28
63339;BME280;47485;51.378;-1.342;2023-02-20T08:25:45;101154.13;;;1.79;52.94
63339;BME280;47485;51.378;-1.342;2023-02-20T08:28:12;101159.95;;;2.60;52.64
63339;BME280;47485;51.378;-1.342;2023-02-20T08:30:41;101164.55;;;3.23;53.25
63339;BME280;47485;51.378;-1.342;2023-02-20T08:33:08;101169.28;;;2.29;52.61
63339;BME280;47485;51.378;-1.342;2023-02-20T08:35:35;101159.38;;;2.74;49.11
63339;BME280;47485;51.378;-1.342;2023-02-20T08:38:03;101163.15;;;3.02;50.28
63339;BME280;47485;51.378;-1.342;2023-02-20T08:40:30;101165.53;;;2.77;54.06
63339;BME280;47485;51.378;-1.342;2023-02-20T08:42:58;101166.56;;;1.73;52.52
63339;BME280;47485;51.378;-1.342;2023-02-20T08:45:25;101174.23;;;1.80;54.88
63339;BME280;47485;51.378;-1.342;2023-02-20T08:47:55;101170.76;;;1.02;54.61
63339;BME280;47485;51.378;-1.342;2023-02-20T08:50:23;101166.71;;;2.25;53.46
63339;BME280;47485;51.378;-1.342;2023-02-20T08:52:50;101168.54;;;0.85;54.55
63339;BME280;47485;51.378;-1.342;2023-02-20T08:55:18;101172.31;;;1.54;56.23
63339;BME280;47485;51.378;-1.342;2023-02-20T08:57:45;101173.03;;;1.64;54.12
63339;BME280;47485;51.378;-1.342;2023-02-20T09:00:14;101174.78;;;1.97;52.76
63339;BME280;47485;51.378;-1.342;2023-02-20T09:02:42;101163.55;;;3.24;50.21
63339;BME280;47485;51.378;-1.342;2023-02-20T09:05:09;101155.71;;;4.53;49.57
63339;BME280;47485;51.378;-1.342;2023-02-20T09:07:35;101148.79;;;2.96;49.16
63339;BME280;47485;51.378;-1.342;2023-02-20T09:10:03;101150.14;;;2.68;49.48
63339;BME280;47485;51.378;-1.342;2023-02-20T09:12:30;101156.74;;;3.58;48.93
63339;BME280;47485;51.378;-1.342;2023-02-20T09:14:57;101155.87;;;3.14;48.28
63339;BME280;47485;51.378;-1.342;2023-02-20T09:17:23;101160.98;;;3.10;49.83
63339;BME280;47485;51.378;-1.342;2023-02-20T09:19:50;101153.93;;;3.81;48.98
63339;BME280;47485;51.378;-1.342;2023-02-20T09:22:21;101160.60;;;2.33;51.11
63339;BME280;47485;51.378;-1.342;2023-02-20T09:24:47;101158.21;;;3.19;49.96
63339;BME280;47485;51.378;-1.342;2023-02-20T09:27:14;101165.26;;;2.37;50.45
63339;BME280;47485;51.378;-1.342;2023-02-20T09:29:41;101160.99;;;2.72;51.30
63339;BME280;47485;51.378;-1.342;2023-02-20T09:32:09;101158.48;;;2.95;51.45
63339;BME280;47485;51.378;-1.342;2023-02-20T09:34:36;101154.82;;;3.67;51.81
63339;BME280;47485;51.378;-1.342;2023-02-20T09:37:02;101150.47;;;3.29;51.62
63339;BME280;47485;51.378;-1.342;2023-02-20T09:39:29;101154.53;;;3.29;53.27
63339;BME280;47485;51.378;-1.342;2023-02-20T09:42:05;101150.90;;;2.94;55.88
63339;BME280;47485;51.378;-1.342;2023-02-20T09:44:39;101143.72;;;2.22;58.83
63339;BME280;47485;51.378;-1.342;2023-02-20T09:47:22;101141.04;;;0.66;57.22
63339;BME280;47485;51.378;-1.342;2023-02-20T09:49:52;101138.20;;;1.87;54.71
63339;BME280;47485;51.378;-1.342;2023-02-20T09:52:23;101138.37;;;2.68;54.21
63339;BME280;47485;51.378;-1.342;2023-02-20T09:54:53;101139.55;;;1.07;55.82
63339;BME280;47485;51.378;-1.342;2023-02-20T09:57:25;101138.83;;;4.31;52.99
63339;BME280;47485;51.378;-1.342;2023-02-20T09:59:58;101143.85;;;2.49;54.10
63339;BME280;47485;51.378;-1.342;2023-02-20T10:02:31;101134.47;;;3.70;53.84
63339;BME280;47485;51.378;-1.342;2023-02-20T10:05:02;101137.86;;;1.71;55.74
63339;BME280;47485;51.378;-1.342;2023-02-20T10:07:33;101139.67;;;2.56;54.54
63339;BME280;47485;51.378;-1.342;2023-02-20T10:10:06;101143.59;;;2.58;53.85
63339;BME280;47485;51.378;-1.342;2023-02-20T10:12:50;101144.47;;;2.84;52.25
63339;BME280;47485;51.378;-1.342;2023-02-20T10:15:23;101151.31;;;1.97;53.96
63339;BME280;47485;51.378;-1.342;2023-02-20T10:17:59;101144.79;;;2.78;52.64
63339;BME280;47485;51.378;-1.342;2023-02-20T10:20:37;101147.63;;;3.46;52.79
63339;BME280;47485;51.378;-1.342;2023-02-20T10:23:15;101154.12;;;2.68;53.23
63339;BME280;47485;51.378;-1.342;2023-02-20T10:25:49;101151.98;;;2.36;50.89
63339;BME280;47485;51.378;-1.342;2023-02-20T10:28:19;101151.73;;;2.66;52.83
63339;BME280;47485;51.378;-1.342;2023-02-20T10:30:48;101155.22;;;1.83;54.60
63339;BME280;47485;51.378;-1.342;2023-02-20T10:33:23;101150.54;;;4.32;53.91
63339;BME280;47485;51.378;-1.342;2023-02-20T10:35:56;101145.49;;;2.89;54.19
63339;BME280;47485;51.378;-1.342;2023-02-20T10:38:29;101136.23;;;2.68;56.24
63339;BME280;47485;51.378;-1.342;2023-02-20T10:41:03;101134.38;;;2.59;54.44
63339;BME280;47485;51.378;-1.342;2023-02-20T10:43:35;101136.75;;;2.73;56.87
63339;BME280;47485;51.378;-1.342;2023-02-20T10:46:08;101133.60;;;3.15;54.50
63339;BME280;47485;51.378;-1.342;2023-02-20T10:48:37;101126.31;;;1.31;55.85
63339;BME280;47485;51.378;-1.342;2023-02-20T10:51:07;101117.29;;;1.69;55.33
63339;BME280;47485;51.378;-1.342;2023-02-20T10:53:39;101118.78;;;2.37;55.80
63339;BME280;47485;51.378;-1.342;2023-02-20T10:56:13;101111.88;;;1.76;56.61
63339;BME280;47485;51.378;-1.342;2023-02-20T10:58:47;101104.10;;;1.64;57.70
63339;BME280;47485;51.378;-1.342;2023-02-20T11:01:20;101104.45;;;1.87;59.22
63339;BME280;47485;51.378;-1.342;2023-02-20T11:03:53;101098.79;;;2.02;57.36
63339;BME280;47485;51.378;-1.342;2023-02-20T11:06:28;101097.55;;;1.66;58.91
63339;BME280;47485;51.378;-1.342;2023-02-20T11:08:56;101097.17;;;2.30;56.27
63339;BME280;47485;51.378;-1.342;2023-02-20T11:11:27;101097.76;;;1.95;56.14
63339;BME280;47485;51.378;-1.342;2023-02-20T11:13:58;101101.43;;;1.90;57.77
63339;BME280;47485;51.378;-1.342;2023-02-20T11:16:29;101100.99;;;1.27;57.44
63339;BME280;47485;51.378;-1.342;2023-02-20T11:19:06;101103.77;;;3.13;54.77
63339;BME280;47485;51.378;-1.342;2023-02-20T11:21:40;101108.18;;;3.49;51.52
63339;BME280;47485;51.378;-1.342;2023-02-20T11:24:18;101108.26;;;3.14;51.30
63339;BME280;47485;51.378;-1.342;2023-02-20T11:26:47;101107.84;;;3.21;53.42
63339;BME280;47485;51.378;-1.342;2023-02-20T11:29:17;101108.58;;;2.98;50.18
63339;BME280;47485;51.378;-1.342;2023-02-20T11:31:45;101102.59;;;4.76;47.74
63339;BME280;47485;51.378;-1.342;2023-02-20T11:34:16;101101.15;;;4.99;47.73
63339;BME280;47485;51.378;-1.342;2023-02-20T11:36:45;101101.15;;;5.39;48.14
63339;BME280;47485;51.378;-1.342;2023-02-20T11:39:19;101103.73;;;3.75;51.44
63339;BME280;47485;51.378;-1.342;2023-02-20T11:41:49;101102.69;;;3.70;52.01
63339;BME280;47485;51.378;-1.342;2023-02-20T11:44:22;101101.40;;;2.56;53.18
63339;BME280;47485;51.378;-1.342;2023-02-20T11:47:20;101100.82;;;3.01;53.87
63339;BME280;47485;51.378;-1.342;2023-02-20T11:49:48;101093.45;;;2.03;53.82
63339;BME280;47485;51.378;-1.342;2023-02-20T11:52:17;101098.22;;;2.13;55.18
63339;BME280;47485;51.378;-1.342;2023-02-20T11:54:44;101094.63;;;1.79;53.51
63339;BME280;47485;51.378;-1.342;2023-02-20T11:57:20;101094.12;;;3.83;52.95
63339;BME280;47485;51.378;-1.342;2023-02-20T11:59:48;101089.90;;;2.63;53.98
63339;BME280;47485;51.378;-1.342;2023-02-20T12:02:24;101086.60;;;2.95;53.03
63339;BME280;47485;51.378;-1.342;2023-02-20T12:05:10;101080.07;;;3.61;53.35
63339;BME280;47485;51.378;-1.342;2023-02-20T12:07:41;101077.89;;;1.61;53.32
63339;BME280;47485;51.378;-1.342;2023-02-20T12:10:19;101073.80;;;2.78;51.58
63339;BME280;47485;51.378;-1.342;2023-02-20T12:12:48;101069.52;;;3.21;52.92
63339;BME280;47485;51.378;-1.342;2023-02-20T12:15:18;101067.32;;;2.38;51.74
63339;BME280;47485;51.378;-1.342;2023-02-20T12:18:16;101063.38;;;4.68;51.10
63339;BME280;47485;51.378;-1.342;2023-02-20T12:20:50;101051.14;;;2.76;52.58
63339;BME280;47485;51.378;-1.342;2023-02-20T12:23:26;101052.26;;;3.81;52.62
63339;BME280;47485;51.378;-1.342;2023-02-20T12:26:06;101053.23;;;3.62;53.25
63339;BME280;47485;51.378;-1.342;2023-02-20T12:28:39;101046.86;;;3.77;53.72
63339;BME280;47485;51.378;-1.342;2023-02-20T12:31:19;101039.26;;;3.51;50.29
63339;BME280;47485;51.378;-1.342;2023-02-20T12:33:59;101039.37;;;4.56;48.37
63339;BME280;47485;51.378;-1.342;2023-02-20T12:36:33;101042.82;;;4.64;49.88
63339;BME280;47485;51.378;-1.342;2023-02-20T12:39:06;101036.92;;;2.62;52.08
63339;BME280;47485;51.378;-1.342;2023-02-20T12:41:47;101039.16;;;4.18;52.47
63339;BME280;47485;51.378;-1.342;2023-02-20T12:44:27;101031.56;;;4.69;50.46
63339;BME280;47485;51.378;-1.342;2023-02-20T12:47:06;101033.06;;;3.42;53.78
63339;BME280;47485;51.378;-1.342;2023-02-20T12:49:52;101030.07;;;2.40;52.26
63339;BME280;47485;51.378;-1.342;2023-02-20T12:52:36;101025.11;;;4.30;48.79
63339;BME280;47485;51.378;-1.342;2023-02-20T12:55:16;101012.64;;;4.33;48.69
63339;BME280;47485;51.378;-1.342;2023-02-20T12:57:49;101014.47;;;3.98;48.93
63339;BME280;47485;51.378;-1.342;2023-02-20T13:00:24;101004.15;;;4.16;50.09
63339;BME280;47485;51.378;-1.342;2023-02-20T13:02:58;101002.69;;;4.27;48.74
63339;BME280;47485;51.378;-1.342;2023-02-20T13:05:29;101001.27;;;2.91;50.13
63339;BME280;47485;51.378;-1.342;2023-02-20T13:08:00;100989.17;;;3.97;48.56